createdAt,value
2019-05-29T00:02:51.065Z,84.90
2019-05-29T00:06:54.083Z,85.20
2019-05-29T00:10:57.090Z,85.20
2019-05-29T00:15:00.199Z,85.40
2019-05-29T00:19:03.311Z,85.40
2019-05-29T00:23:06.578Z,85.80
2019-05-29T00:27:12.919Z,86.80
2019-05-29T00:31:14.547Z,86.30
2019-05-29T00:35:17.559Z,86.90
2019-05-29T00:39:20.559Z,86.90
2019-05-29T00:43:23.607Z,86.90
2019-05-29T00:47:27.508Z,86.70
2019-05-29T00:51:30.612Z,86.80
2019-05-29T00:55:33.612Z,86.50
2019-05-29T00:59:36.699Z,86.90
2019-05-29T01:03:39.714Z,87.70
2019-05-29T01:07:42.764Z,87.80
2019-05-29T01:11:45.788Z,87.90
2019-05-29T01:15:49.011Z,88.00
2019-05-29T01:19:52.037Z,88.20
2019-05-29T01:23:55.055Z,88.40
2019-05-29T01:27:58.058Z,88.90
2019-05-29T01:32:01.071Z,89.10
2019-05-29T01:36:04.081Z,89.30
2019-05-29T01:40:19.139Z,89.30
2019-05-29T01:44:12.308Z,89.50
2019-05-29T01:48:17.404Z,89.40
2019-05-29T01:52:21.785Z,89.60
2019-05-29T01:56:25.028Z,90.00
2019-05-29T02:00:28.566Z,89.80
2019-05-29T02:04:31.752Z,90.20
2019-05-29T02:08:34.788Z,90.30
2019-05-29T02:12:37.793Z,90.20
2019-05-29T02:16:40.806Z,90.10
2019-05-29T02:20:43.817Z,90.10
2019-05-29T02:24:46.829Z,90.10
2019-05-29T02:28:49.935Z,90.00
2019-05-29T02:32:52.969Z,90.10
2019-05-29T02:36:55.996Z,90.00
2019-05-29T02:40:59.222Z,90.00
2019-05-29T02:45:06.769Z,90.00
2019-05-29T02:49:11.092Z,90.10
2019-05-29T02:53:14.174Z,90.10
2019-05-29T02:57:17.211Z,90.00
2019-05-29T03:01:21.515Z,89.50
2019-05-29T03:05:25.970Z,89.40
2019-05-29T03:09:30.739Z,89.20
2019-05-29T03:13:33.987Z,88.90
2019-05-29T03:17:36.997Z,89.20
2019-05-29T03:21:40.005Z,89.20
2019-05-29T03:25:43.061Z,89.40
2019-05-29T03:29:46.075Z,89.50
2019-05-29T03:33:50.780Z,88.80
2019-05-29T03:37:54.015Z,88.90
2019-05-29T03:41:57.094Z,88.10
2019-05-29T03:46:00.111Z,88.00
2019-05-29T03:50:05.276Z,87.50
2019-05-29T03:54:08.277Z,87.50
2019-05-29T03:58:11.348Z,87.40
2019-05-29T04:02:14.384Z,87.30
2019-05-29T04:06:17.540Z,87.20
2019-05-29T04:10:29.363Z,86.90
2019-05-29T04:14:31.617Z,86.50
2019-05-29T04:18:36.034Z,86.90
2019-05-29T04:22:43.337Z,86.50
2019-05-29T04:26:45.010Z,86.30
2019-05-29T04:30:46.121Z,86.20
2019-05-29T04:34:49.188Z,85.80
2019-05-29T04:38:50.199Z,85.40
2019-05-29T04:42:51.217Z,85.70
2019-05-29T04:47:09.467Z,85.80
2019-05-29T04:50:55.784Z,86.80
2019-05-29T04:54:58.801Z,87.40
2019-05-29T04:59:00.213Z,86.60
2019-05-29T05:03:01.217Z,85.70
2019-05-29T05:07:02.349Z,85.30
2019-05-29T05:11:03.423Z,84.90
2019-05-29T05:15:06.249Z,84.70
2019-05-29T05:19:09.276Z,84.60
2019-05-29T05:23:10.285Z,84.00
2019-05-29T05:27:11.290Z,83.60
2019-05-29T05:31:12.449Z,83.10
2019-05-29T05:35:14.487Z,82.80
2019-05-29T05:39:15.765Z,79.60
2019-05-29T05:43:23.969Z,78.30
2019-05-29T05:47:19.885Z,77.90
2019-05-29T05:51:23.883Z,77.80
2019-05-29T05:55:24.888Z,79.40
2019-05-29T05:59:25.916Z,78.70
2019-05-29T06:03:29.036Z,77.90
2019-05-29T06:07:30.171Z,78.00
2019-05-29T06:11:32.181Z,77.70
2019-05-29T06:15:34.266Z,78.50
2019-05-29T06:19:36.665Z,78.20
2019-05-29T06:23:38.897Z,77.70
2019-05-29T06:27:41.250Z,78.70
2019-05-29T06:31:44.481Z,77.20
2019-05-29T06:35:45.505Z,75.30
2019-05-29T06:39:46.577Z,73.50
2019-05-29T06:43:47.629Z,73.70
2019-05-29T06:47:48.723Z,74.60
2019-05-29T06:51:52.751Z,74.40
2019-05-29T06:55:55.708Z,75.50
2019-05-29T06:59:56.881Z,74.10
2019-05-29T07:04:11.463Z,73.50
2019-05-29T07:08:16.900Z,73.30
2019-05-29T07:12:04.061Z,72.00
2019-05-29T07:16:05.155Z,73.10
2019-05-29T07:20:06.466Z,72.40
2019-05-29T07:24:07.559Z,73.00
2019-05-29T07:28:08.559Z,72.70
2019-05-29T07:32:09.574Z,72.00
2019-05-29T07:36:10.579Z,70.30
2019-05-29T07:40:13.692Z,68.90
2019-05-29T07:44:14.717Z,69.80
2019-05-29T07:48:15.732Z,68.20
2019-05-29T07:52:18.361Z,69.00
2019-05-29T07:56:23.108Z,68.80
2019-05-29T08:00:22.270Z,69.20
2019-05-29T08:04:25.277Z,71.10
2019-05-29T08:08:28.370Z,69.70
2019-05-29T08:12:31.395Z,67.50
2019-05-29T08:16:34.399Z,62.10
2019-05-29T08:20:37.423Z,57.80
2019-05-29T08:24:40.719Z,56.80
2019-05-29T08:28:44.766Z,58.40
2019-05-29T08:32:49.114Z,62.60
2019-05-29T08:37:05.901Z,55.50
2019-05-29T08:40:57.258Z,56.30
2019-05-29T08:45:00.268Z,53.40
2019-05-29T08:49:03.314Z,49.00
2019-05-29T08:53:07.510Z,47.00
2019-05-29T08:57:10.600Z,47.70
2019-05-29T09:01:13.610Z,48.00
2019-05-29T09:05:16.716Z,48.40
2019-05-29T09:09:19.728Z,48.90
2019-05-29T09:13:22.876Z,47.40
2019-05-29T09:17:26.003Z,46.00
2019-05-29T09:21:29.027Z,51.90
2019-05-29T09:25:32.024Z,51.10
2019-05-29T09:29:35.022Z,50.10
2019-05-29T09:33:38.093Z,49.20
2019-05-29T09:37:41.122Z,49.20
2019-05-29T09:41:44.164Z,45.90
2019-05-29T09:45:47.157Z,44.60
2019-05-29T09:49:50.173Z,46.80
2019-05-29T09:53:57.246Z,46.70
2019-05-29T09:58:00.723Z,46.20
2019-05-29T10:02:07.597Z,47.60
2019-05-29T10:06:09.383Z,48.50
2019-05-29T10:10:12.818Z,50.60
2019-05-29T10:14:15.826Z,51.00
2019-05-29T10:18:31.910Z,48.60
2019-05-29T10:22:23.770Z,44.00
2019-05-29T10:26:26.791Z,45.50
2019-05-29T10:30:29.897Z,47.80
2019-05-29T10:34:32.897Z,48.90
2019-05-29T10:38:36.005Z,45.50
2019-05-29T10:42:39.343Z,47.90
2019-05-29T10:46:44.939Z,52.10
2019-05-29T10:50:50.482Z,51.50
2019-05-29T10:54:52.590Z,51.20
2019-05-29T10:58:59.471Z,49.60
2019-05-29T11:03:00.510Z,46.80
2019-05-29T11:07:03.633Z,50.30
2019-05-29T11:11:06.636Z,46.20
2019-05-29T11:15:20.621Z,46.60
2019-05-29T11:19:15.017Z,46.40
2019-05-29T11:23:18.018Z,47.00
2019-05-29T11:27:21.111Z,48.20
2019-05-29T11:31:24.197Z,45.30
2019-05-29T11:35:27.217Z,46.80
2019-05-29T11:39:30.269Z,43.50
2019-05-29T11:43:33.510Z,45.20
2019-05-29T11:47:36.719Z,41.70
2019-05-29T11:51:44.109Z,39.80
2019-05-29T11:55:46.625Z,41.70
2019-05-29T11:59:49.656Z,43.90
2019-05-29T12:04:13.671Z,42.90
2019-05-29T12:07:57.895Z,43.20
2019-05-29T12:12:02.136Z,46.70
2019-05-29T12:16:05.417Z,46.00
2019-05-29T12:20:26.808Z,46.10
2019-05-29T12:24:15.660Z,43.20
2019-05-29T12:28:18.719Z,41.90
2019-05-29T12:32:21.800Z,36.90
2019-05-29T12:36:24.828Z,38.10
2019-05-29T12:40:27.845Z,35.40
2019-05-29T12:44:30.863Z,37.10
2019-05-29T12:48:33.878Z,34.50
2019-05-29T12:52:36.908Z,36.40
2019-05-29T12:56:40.970Z,37.70
2019-05-29T13:00:44.098Z,34.00
2019-05-29T13:05:06.872Z,38.10
2019-05-29T13:08:52.069Z,40.50
2019-05-29T13:13:02.413Z,42.60
2019-05-29T13:17:00.861Z,43.80
2019-05-29T13:21:05.159Z,42.90
2019-05-29T13:25:11.927Z,38.30
2019-05-29T13:29:13.494Z,37.50
2019-05-29T13:33:16.528Z,36.90
2019-05-29T13:37:19.639Z,36.10
2019-05-29T13:41:22.725Z,36.60
2019-05-29T13:45:25.982Z,36.50
2019-05-29T13:49:29.069Z,38.50
2019-05-29T13:53:32.079Z,38.20
2019-05-29T13:57:40.001Z,39.20
2019-05-29T14:01:48.032Z,38.70
2019-05-29T14:05:47.860Z,41.60
2019-05-29T14:09:50.861Z,43.30
2019-05-29T14:18:17.780Z,47.20
2019-05-29T14:22:20.785Z,45.30
2019-05-29T14:26:23.854Z,46.60
2019-05-29T14:30:27.166Z,42.70
2019-05-29T14:34:30.192Z,43.90
2019-05-29T14:38:33.202Z,45.10
2019-05-29T14:42:36.296Z,43.90
2019-05-29T14:46:39.390Z,44.80
2019-05-29T14:50:42.417Z,44.50
2019-05-29T14:54:45.458Z,44.20
2019-05-29T14:58:50.223Z,44.40
2019-05-29T15:02:53.290Z,44.90
2019-05-29T15:06:56.305Z,45.50
2019-05-29T15:10:59.304Z,42.40
2019-05-29T15:15:04.765Z,40.00
2019-05-29T15:19:08.917Z,41.50
2019-05-29T15:23:13.414Z,40.50
2019-05-29T15:27:16.609Z,40.20
2019-05-29T15:31:19.609Z,42.90
2019-05-29T15:35:22.708Z,43.30
2019-05-29T15:39:25.729Z,45.60
2019-05-29T15:43:28.806Z,42.70
2019-05-29T15:47:31.823Z,44.50
2019-05-29T15:51:34.901Z,43.60
2019-05-29T15:55:37.909Z,43.10
2019-05-29T15:59:42.381Z,45.30
2019-05-29T16:03:45.405Z,43.80
2019-05-29T16:07:48.578Z,41.80
2019-05-29T16:11:51.737Z,39.00
2019-05-29T16:15:54.839Z,43.40
2019-05-29T16:19:57.933Z,41.60
2019-05-29T16:24:00.977Z,44.00
2019-05-29T16:28:04.239Z,43.40
2019-05-29T16:32:07.331Z,44.30
2019-05-29T16:36:10.394Z,45.60
2019-05-29T16:40:16.120Z,45.60
2019-05-29T16:44:25.077Z,45.20
2019-05-29T16:48:24.662Z,45.20
2019-05-29T16:52:27.681Z,44.00
2019-05-29T16:56:30.816Z,44.20
2019-05-29T17:00:35.756Z,43.20
2019-05-29T17:04:38.784Z,45.70
2019-05-29T17:08:41.889Z,45.30
2019-05-29T17:12:45.007Z,44.90
2019-05-29T17:16:48.090Z,47.40
2019-05-29T17:20:51.109Z,45.50
2019-05-29T17:24:54.189Z,44.30
2019-05-29T17:28:57.292Z,45.30
2019-05-29T17:33:00.318Z,46.80
2019-05-29T17:37:03.338Z,45.90
2019-05-29T17:41:06.352Z,45.90
2019-05-29T17:45:10.995Z,46.70
2019-05-29T17:49:15.642Z,47.00
2019-05-29T17:53:19.936Z,46.80
2019-05-29T17:57:23.904Z,47.50
2019-05-29T18:01:30.859Z,48.30
2019-05-29T18:05:36.759Z,47.30
2019-05-29T18:09:38.460Z,49.60
2019-05-29T18:13:41.473Z,52.10
2019-05-29T18:17:44.496Z,52.10
2019-05-29T18:21:47.579Z,51.20
2019-05-29T18:25:50.675Z,51.50
2019-05-29T18:29:53.807Z,52.10
2019-05-29T18:33:56.820Z,54.10
2019-05-29T18:37:59.827Z,57.30
2019-05-29T18:42:03.248Z,58.50
2019-05-29T18:46:06.240Z,59.50
2019-05-29T18:50:10.058Z,59.60
2019-05-29T18:54:13.076Z,60.80
2019-05-29T18:58:16.095Z,60.60
2019-05-29T19:02:21.272Z,61.60
2019-05-29T19:06:25.529Z,61.70
2019-05-29T19:10:29.703Z,62.50
2019-05-29T19:14:33.044Z,64.00
2019-05-29T19:18:36.150Z,65.50
2019-05-29T19:22:39.344Z,65.50
2019-05-29T19:26:42.386Z,67.30
2019-05-29T19:30:45.621Z,67.40
2019-05-29T19:34:48.686Z,68.10
2019-05-29T19:38:51.710Z,69.20
2019-05-29T19:42:54.952Z,70.00
2019-05-29T19:46:58.162Z,70.30
2019-05-29T19:51:01.191Z,71.10
2019-05-29T19:55:05.185Z,71.60
2019-05-29T19:59:08.200Z,71.90
2019-05-29T20:03:13.421Z,72.40
2019-05-29T20:07:16.641Z,72.60
2019-05-29T20:11:19.733Z,72.60
2019-05-29T20:15:22.830Z,72.60
2019-05-29T20:19:26.044Z,73.00
2019-05-29T20:23:29.069Z,73.30
2019-05-29T20:27:32.141Z,73.80
2019-05-29T20:31:36.524Z,73.90
2019-05-29T20:35:39.770Z,73.70
2019-05-29T20:39:42.910Z,74.00
2019-05-29T20:43:45.900Z,74.30
2019-05-29T20:47:48.976Z,74.20
2019-05-29T20:51:52.023Z,74.40
2019-05-29T20:55:55.027Z,75.30
2019-05-29T20:59:58.317Z,75.40
2019-05-29T21:04:02.328Z,75.10
2019-05-29T21:08:05.358Z,75.40
2019-05-29T21:12:08.382Z,75.80
2019-05-29T21:16:11.664Z,75.80
2019-05-29T21:20:15.014Z,76.20
2019-05-29T21:24:18.107Z,76.50
2019-05-29T21:28:21.215Z,76.60
2019-05-29T21:32:24.217Z,76.30
2019-05-29T21:36:27.221Z,77.80
2019-05-29T21:40:30.300Z,77.90
2019-05-29T21:44:33.298Z,78.00
2019-05-29T21:48:37.006Z,78.20
2019-05-29T21:52:41.384Z,79.10
2019-05-29T21:56:45.728Z,79.20
2019-05-29T22:00:49.796Z,79.50
2019-05-29T22:04:54.194Z,79.40
2019-05-29T22:08:57.226Z,79.00
2019-05-29T22:13:00.737Z,80.40
2019-05-29T22:17:03.744Z,80.80
2019-05-29T22:21:06.748Z,81.50
2019-05-29T22:25:10.069Z,81.60
2019-05-29T22:29:18.355Z,81.80
2019-05-29T22:33:17.982Z,81.90
2019-05-29T22:37:21.015Z,82.30
2019-05-29T22:41:24.094Z,81.90
2019-05-29T22:45:27.119Z,81.70
2019-05-29T22:49:30.174Z,81.50
2019-05-29T22:53:33.183Z,82.00
2019-05-29T22:57:36.210Z,82.70
2019-05-29T23:01:39.274Z,83.70
2019-05-29T23:05:43.848Z,83.60
2019-05-29T23:09:46.863Z,83.40
2019-05-29T23:13:49.862Z,82.70
2019-05-29T23:17:52.881Z,83.30
2019-05-29T23:21:56.549Z,83.50
2019-05-29T23:26:00.765Z,83.60
2019-05-29T23:30:05.495Z,84.10
2019-05-29T23:34:08.566Z,84.60
2019-05-29T23:38:11.579Z,83.80
2019-05-29T23:42:14.669Z,83.80
2019-05-29T23:46:17.689Z,83.30
2019-05-29T23:50:20.752Z,83.60
2019-05-29T23:54:23.772Z,86.00
2019-05-29T23:58:26.787Z,86.50
